createdAt,value
2018-03-24T00:00:08.857Z,6.20
2018-03-24T00:05:11.902Z,6.30
2018-03-24T00:10:15.013Z,6.30
2018-03-24T00:15:17.885Z,6.40
2018-03-24T00:20:21.545Z,6.30
2018-03-24T00:25:24.732Z,6.20
2018-03-24T00:30:27.655Z,6.50
2018-03-24T00:35:33.282Z,6.40
2018-03-24T00:40:38.668Z,6.50
2018-03-24T00:45:41.573Z,6.40
2018-03-24T00:50:44.734Z,6.40
2018-03-24T00:55:48.235Z,6.30
2018-03-24T01:00:51.081Z,6.20
2018-03-24T01:05:53.901Z,6.30
2018-03-24T01:10:57.727Z,6.20
2018-03-24T01:16:00.875Z,6.10
2018-03-24T01:21:04.428Z,5.70
2018-03-24T01:26:08.104Z,5.60
2018-03-24T01:31:11.021Z,5.40
2018-03-24T01:36:13.948Z,5.20
2018-03-24T01:41:16.762Z,5.00
2018-03-24T01:46:19.899Z,4.90
2018-03-24T01:51:22.758Z,4.70
2018-03-24T01:56:25.712Z,4.50
2018-03-24T02:01:29.264Z,4.20
2018-03-24T02:06:33.324Z,4.10
2018-03-24T02:11:36.683Z,4.00
2018-03-24T02:16:39.720Z,3.90
2018-03-24T02:21:45.310Z,3.80
2018-03-24T02:26:49.251Z,3.70
2018-03-24T02:31:52.168Z,3.60
2018-03-24T02:36:54.972Z,3.50
2018-03-24T02:41:57.749Z,3.50
2018-03-24T02:47:00.574Z,3.50
2018-03-24T02:52:03.661Z,3.40
2018-03-24T02:57:06.868Z,3.40
2018-03-24T03:02:09.784Z,3.40
2018-03-24T03:07:12.667Z,3.50
2018-03-24T03:12:15.557Z,3.40
2018-03-24T03:17:18.345Z,3.40
2018-03-24T03:22:22.295Z,3.40
2018-03-24T03:27:25.115Z,3.30
2018-03-24T03:32:28.121Z,3.40
2018-03-24T03:37:31.306Z,3.30
2018-03-24T03:42:34.431Z,3.20
2018-03-24T03:47:37.755Z,3.00
2018-03-24T03:52:41.542Z,2.90
2018-03-24T03:57:44.760Z,2.80
2018-03-24T04:02:47.620Z,2.70
2018-03-24T04:07:50.801Z,2.70
2018-03-24T04:12:54.450Z,2.60
2018-03-24T04:17:57.486Z,2.50
2018-03-24T04:23:00.628Z,2.50
2018-03-24T04:28:04.311Z,2.40
2018-03-24T04:33:07.082Z,2.30
2018-03-24T04:38:09.874Z,2.30
2018-03-24T04:43:13.090Z,2.30
2018-03-24T04:48:16.312Z,2.20
2018-03-24T04:53:19.570Z,2.10
2018-03-24T04:58:23.552Z,2.00
2018-03-24T05:03:26.351Z,1.90
2018-03-24T05:08:29.242Z,1.90
2018-03-24T05:13:32.251Z,1.90
2018-03-24T05:18:35.207Z,1.90
2018-03-24T05:23:39.122Z,1.80
2018-03-24T05:28:42.779Z,1.70
2018-03-24T05:33:45.731Z,1.60
2018-03-24T05:38:48.592Z,1.60
2018-03-24T05:43:51.764Z,1.70
2018-03-24T05:48:54.782Z,1.60
2018-03-24T05:53:58.025Z,1.80
2018-03-24T05:59:00.966Z,1.80
2018-03-24T06:04:05.098Z,2.20
2018-03-24T06:09:08.740Z,2.40
2018-03-24T06:14:11.879Z,2.30
2018-03-24T06:19:14.786Z,2.60
2018-03-24T06:24:17.805Z,2.70
2018-03-24T06:29:20.737Z,2.70
2018-03-24T06:34:24.534Z,2.90
2018-03-24T06:39:27.454Z,2.90
2018-03-24T06:44:31.286Z,3.10
2018-03-24T06:49:35.070Z,3.20
2018-03-24T06:54:37.913Z,3.10
2018-03-24T06:59:41.034Z,3.30
2018-03-24T07:04:43.947Z,3.20
2018-03-24T07:09:46.770Z,3.50
2018-03-24T07:14:49.624Z,3.70
2018-03-24T07:19:52.478Z,3.80
2018-03-24T07:24:55.255Z,3.90
2018-03-24T07:29:59.901Z,4.20
2018-03-24T07:35:02.776Z,4.60
2018-03-24T07:40:05.639Z,4.80
2018-03-24T07:45:08.559Z,4.90
2018-03-24T07:50:11.420Z,4.90
2018-03-24T07:55:14.152Z,5.20
2018-03-24T08:00:17.007Z,5.50
2018-03-24T08:05:19.768Z,5.80
2018-03-24T08:10:22.550Z,6.10
2018-03-24T08:15:26.160Z,6.60
2018-03-24T08:20:29.752Z,7.00
2018-03-24T08:25:32.685Z,7.00
2018-03-24T08:30:36.336Z,7.70
2018-03-24T08:35:39.276Z,7.60
2018-03-24T08:40:44.294Z,7.80
2018-03-24T08:45:47.082Z,8.10
2018-03-24T08:50:55.663Z,8.50
2018-03-24T08:55:58.583Z,9.20
2018-03-24T09:01:02.284Z,10.00
2018-03-24T09:06:05.128Z,9.90
2018-03-24T09:11:07.972Z,10.10
2018-03-24T09:16:10.789Z,10.50
2018-03-24T09:21:13.608Z,10.70
2018-03-24T09:26:17.324Z,11.20
2018-03-24T09:31:20.906Z,11.20
2018-03-24T09:36:23.748Z,11.10
2018-03-24T09:41:26.776Z,11.40
2018-03-24T09:46:30.545Z,11.70
2018-03-24T09:51:33.632Z,11.70
2018-03-24T09:56:36.486Z,11.50
2018-03-24T10:01:41.157Z,10.90
2018-03-24T10:06:45.100Z,10.80
2018-03-24T10:11:48.941Z,10.90
2018-03-24T10:16:52.671Z,11.40
2018-03-24T10:33:01.189Z,12.50
2018-03-24T10:38:04.836Z,13.70
2018-03-24T10:43:13.516Z,13.60
2018-03-24T10:48:17.631Z,13.80
2018-03-24T10:53:20.404Z,13.90
2018-03-24T10:58:23.299Z,14.20
2018-03-24T11:03:26.150Z,14.90
2018-03-24T11:08:29.306Z,15.10
2018-03-24T11:13:32.096Z,15.50
2018-03-24T11:18:36.151Z,15.40
2018-03-24T11:23:39.013Z,15.40
2018-03-24T11:28:42.808Z,16.30
2018-03-24T11:33:45.633Z,16.30
2018-03-24T11:38:49.276Z,15.10
2018-03-24T11:43:52.349Z,15.00
2018-03-24T11:48:55.333Z,14.30
2018-03-24T11:53:59.157Z,13.60
2018-03-24T11:59:02.101Z,13.30
2018-03-24T12:04:05.700Z,13.40
2018-03-24T12:09:08.671Z,13.30
2018-03-24T12:14:15.212Z,13.20
2018-03-24T12:19:20.726Z,12.90
2018-03-24T12:24:23.771Z,12.80
2018-03-24T12:29:28.421Z,12.60
2018-03-24T12:34:34.154Z,13.40
2018-03-24T12:39:37.436Z,13.40
2018-03-24T12:44:41.124Z,14.40
2018-03-24T12:49:43.944Z,15.20
2018-03-24T12:54:47.653Z,14.80
2018-03-24T12:59:50.908Z,14.20
2018-03-24T13:04:53.673Z,14.60
2018-03-24T13:09:56.946Z,15.20
2018-03-24T13:15:00.529Z,15.90
2018-03-24T13:20:03.457Z,15.80
2018-03-24T13:25:06.341Z,15.60
2018-03-24T13:30:09.185Z,15.70
2018-03-24T13:35:12.773Z,16.10
2018-03-24T13:40:15.670Z,16.00
2018-03-24T13:45:19.779Z,16.30
2018-03-24T13:50:22.530Z,16.20
2018-03-24T13:55:25.424Z,16.50
2018-03-24T14:00:29.081Z,16.60
2018-03-24T14:05:32.313Z,16.50
2018-03-24T14:10:36.043Z,16.50
2018-03-24T14:15:39.263Z,16.40
2018-03-24T14:20:42.398Z,16.30
2018-03-24T14:25:45.993Z,16.40
2018-03-24T14:30:49.089Z,16.00
2018-03-24T14:35:51.967Z,15.90
2018-03-24T14:40:54.985Z,16.20
2018-03-24T14:45:58.081Z,16.30
2018-03-24T14:51:01.956Z,16.00
2018-03-24T14:56:05.789Z,15.10
2018-03-24T15:01:08.839Z,15.10
2018-03-24T15:06:11.695Z,14.90
2018-03-24T15:11:14.497Z,14.50
2018-03-24T15:16:17.382Z,14.40
2018-03-24T15:21:21.330Z,14.40
2018-03-24T15:26:24.227Z,14.10
2018-03-24T15:31:39.309Z,14.20
2018-03-24T15:36:45.568Z,14.00
2018-03-24T15:41:49.644Z,13.70
2018-03-24T15:46:53.338Z,13.60
2018-03-24T15:51:56.873Z,13.60
2018-03-24T15:57:01.711Z,13.70
2018-03-24T16:02:04.654Z,14.00
2018-03-24T16:07:07.880Z,13.90
2018-03-24T16:12:10.935Z,13.50
2018-03-24T16:17:14.011Z,13.00
2018-03-24T16:22:18.282Z,12.50
2018-03-24T16:27:21.653Z,12.50
2018-03-24T16:32:25.773Z,12.00
2018-03-24T16:37:31.757Z,11.90
2018-03-24T16:42:34.809Z,11.80
2018-03-24T16:47:38.155Z,11.80
2018-03-24T16:52:41.371Z,11.50
2018-03-24T16:57:44.750Z,11.40
2018-03-24T17:02:47.699Z,11.30
2018-03-24T17:07:51.509Z,11.20
2018-03-24T17:12:54.747Z,11.10
2018-03-24T17:17:57.569Z,11.00
2018-03-24T17:23:00.463Z,10.90
2018-03-24T17:28:03.427Z,10.80
2018-03-24T17:33:06.687Z,10.60
2018-03-24T17:38:10.110Z,10.40
2018-03-24T17:43:13.076Z,10.30
2018-03-24T17:48:16.050Z,10.20
2018-03-24T17:53:18.911Z,9.90
2018-03-24T17:58:21.822Z,9.70
2018-03-24T18:03:24.690Z,9.50
2018-03-24T18:08:27.749Z,9.20
2018-03-24T18:13:30.543Z,9.00
2018-03-24T18:18:33.413Z,8.70
2018-03-24T18:23:36.658Z,8.50
2018-03-24T18:28:39.525Z,7.80
2018-03-24T18:33:42.437Z,7.30
2018-03-24T18:38:45.457Z,7.30
2018-03-24T18:43:48.783Z,6.90
2018-03-24T18:48:51.982Z,6.70
2018-03-24T18:53:55.093Z,6.70
2018-03-24T18:58:57.991Z,6.60
2018-03-24T19:04:00.770Z,6.50
2018-03-24T19:09:03.892Z,6.30
2018-03-24T19:14:06.822Z,6.30
2018-03-24T19:19:12.446Z,6.00
2018-03-24T19:24:15.564Z,5.90
2018-03-24T19:29:19.650Z,5.80
2018-03-24T19:34:22.866Z,5.70
2018-03-24T19:39:25.933Z,5.70
2018-03-24T19:44:29.630Z,5.40
2018-03-24T19:49:32.761Z,5.30
2018-03-24T19:54:36.360Z,5.20
2018-03-24T19:59:39.121Z,5.10
2018-03-24T20:04:45.601Z,5.10
2018-03-24T20:09:48.852Z,4.90
2018-03-24T20:14:52.633Z,4.90
2018-03-24T20:19:55.865Z,4.70
2018-03-24T20:24:58.833Z,4.70
2018-03-24T20:30:01.633Z,4.60
2018-03-24T20:35:06.472Z,4.40
2018-03-24T20:40:09.525Z,4.30
2018-03-24T20:45:14.698Z,4.30
2018-03-24T20:50:18.627Z,4.10
2018-03-24T20:55:24.942Z,4.00
2018-03-24T21:00:27.765Z,3.80
2018-03-24T21:05:30.819Z,3.80
2018-03-24T21:10:34.512Z,3.70
2018-03-24T21:15:37.554Z,3.60
2018-03-24T21:20:41.232Z,3.50
2018-03-24T21:25:44.340Z,3.50
2018-03-24T21:30:48.470Z,3.30
2018-03-24T21:35:55.442Z,3.40
2018-03-24T21:40:59.113Z,3.30
2018-03-24T21:46:02.853Z,3.10
2018-03-24T21:51:05.796Z,3.10
2018-03-24T21:56:08.680Z,3.10
2018-03-24T22:01:11.541Z,3.00
2018-03-24T22:06:15.231Z,2.90
2018-03-24T22:11:18.148Z,2.80
2018-03-24T22:16:20.996Z,2.90
2018-03-24T22:21:23.972Z,2.80
2018-03-24T22:26:27.816Z,2.80
2018-03-24T22:31:30.978Z,2.70
2018-03-24T22:36:33.779Z,2.60
2018-03-24T22:41:36.555Z,2.50
2018-03-24T22:46:39.422Z,2.40
2018-03-24T22:51:42.588Z,2.40
2018-03-24T22:56:46.704Z,2.40
2018-03-24T23:01:51.665Z,2.30
2018-03-24T23:06:54.719Z,2.20
2018-03-24T23:11:57.738Z,2.20
2018-03-24T23:17:00.707Z,2.20
2018-03-24T23:22:04.110Z,2.10
2018-03-24T23:27:08.102Z,2.00
2018-03-24T23:32:11.138Z,1.90
2018-03-24T23:37:14.671Z,1.90
2018-03-24T23:42:19.372Z,1.80
2018-03-24T23:47:22.179Z,1.80
2018-03-24T23:52:24.932Z,1.70
2018-03-24T23:57:28.015Z,1.70
